Central Sonoma County Latest

37 Stations

15 Minute Data | America/Los_Angeles
as of 5/5/26 11:24 PM PDT
Station Date Time Temp (°F) RH (%) Dew Pt (°F) Wind Spd (mph) Wind Dir (°) Wind Gust (mph) Latest Rain (In) Daily Rain (In) Daily Max Temp (°F) Daily Min Temp (°F)
Windsor-NW (Ranch 8) 5/5/26 2315 55.6   2.5 83   2 50.5   1.7 0.7   3.0 SSE | 168 6.3   0.7 0.00 0.01 68.0   0.3 52.0   3.4
Windsor-East (Ranch 16) 5/5/26 2315 55.5   2.5 85   9 51.2   0.1 4.4   1.0 SE | 142 7.1   0.1 0.00 0.03 66.7   0.6 52.1   5.5
Mark West-North (Ranch 14) 5/5/26 2315 55.5   2.6 84   12 50.8   1.1 2.4   0.5 SE | 133 5.3   0.0 0.00 0.05 66.7   2.7 52.0   4.2
Windsor-SE (Silk Rd) 5/5/26 2315 55.6   2.4 86   12 51.5   1.2 2.4   0.5 ESE | 118 5.5   2.1 0.00 0.01 67.2   1.1 52.4   6.4
Fulton-NW (Ranch 5) 5/5/26 2315 55.5   2.6 87   9 51.7   0.2 3.2   2.4 ESE | 106 5.5   1.4 0.00 0.05 66.7   1.5 52.1   5.5
Bisordi (Fulton) 5/5/26 2315 55.5   2.1 87   7 51.7   0.0 3.5   0.5 SE | 132 6.6   0.8 0.00 0.04 65.7   0.5 52.4   6.0
Windsor-South (Laughlin Rd) 5/4/26 1515 70.3 46 48.5 - - - 0.00 - 71.4 51.0
Fulton-SE (Barnes Rd) 5/5/26 2315 55.8   2.5 86   8 51.7   0.0 3.2   1.4 SE | 129 5.7   0.8 0.00 0.08 65.9   0.7 52.2   5.5
Fulton-SW (Ranch 21) 5/5/26 2315 55.0   2.3 87   13 51.2   1.4 3.5   0.8 SE | 144 6.7   1.5 0.00 0.04 65.7   1.0 52.1   4.7
NW Santa Rosa (Piner Road) 5/5/26 2315 55.0   2.1 100   0 55.0   2.2 2.1   0.2 SE | 127 4.5   0.3 0.00 0.00 65.5   0.2 52.1   5.4
River Rd South (Denner Ranch) 5/5/26 2315 54.4   2.0 0   0 -64.9   1.4 4.0   1.3 SE | 124 6.4   0.4 - - 67.1   0.0 51.5   6.5
West Santa Rosa (LOV Vineyard) 5/5/26 2315 55.2   2.2 88   8 51.6   0.1 0.1   0.2 SE | 142 1.4   1.5 0.00 0.04 65.9   0.5 52.2   5.8
Guerneville Rd (Prokopakis) 5/5/26 2315 55.3   2.0 88   8 51.7   0.5 - - - 0.00 0.05 69.8   1.0 52.7   6.0
SunnyView Vineyard (SCWC) 5/5/26 2315 54.7   2.2 88   7 51.2   0.0 0.9   0.3 SE | 128 3.3   0.5 0.00 0.06 66.6   0.4 51.9   7.9
Guerneville Rd West (Balletto) 5/5/26 2315 55.2   2.1 90   7 52.4   0.0 2.2   0.6 SE | 139 4.1   1.1 0.00 0.04 66.1   0.7 52.4   7.2
Sanchietti Ranch 5/5/26 2315 55.4   1.5 91   4 52.8   0.5 1.7   0.9 ESE | 114 3.2   1.0 0.00 0.07 66.7   0.8 53.2   6.0
Occidental Rd (Sebastopol) 5/5/26 2315 54.1   1.5 100   0 54.2   1.5 1.0   0.3 E | 99 2.2   0.7 0.00 0.04 66.3   0.2 52.0   7.8
Harper's Rest (Windsor-West) 5/5/26 2315 54.3   2.5 85   10 50.0   0.4 2.6   0.9 E | 94 5.7   1.9 0.00 0.03 67.4   0.9 50.7   5.9
Lower Westside Rd (Ranch 12) 5/5/26 2315 55.6   2.6 85   10 51.2   0.6 1.5   0.6 SE | 125 5.2   3.4 0.00 0.02 68.5   1.1 51.6   5.8
Guerneville (Laughlin Rd) 5/5/26 2315 54.7   2.2 89   7 51.4   0.0 1.0   0.4 SSE | 150 2.8   0.4 0.00 0.01 66.1   0.0 50.8   3.9
Korbel (Winery) 5/5/26 2315 56.0   2.6 84   12 51.2   1.0 0.0   0.0 N | 0 0.0   0.0 0.00 0.00 65.6   0.3 51.4   3.1
Forestville (Shone Farms) 5/5/26 2315 55.1   2.4 88   7 51.8   0.2 2.8   2.3 ESE | 110 5.2   1.8 0.00 0.01 67.2   0.0 51.1   5.4
Forestville-NE (Ranch 30) 5/5/26 2315 54.6   2.6 90   8 51.7   0.4 3.9   2.7 ESE | 120 6.7   3.7 0.00 0.02 69.3   1.9 51.2   6.6
Foggy Bend (Ranch 41) 5/5/26 2315 56.4   2.9 85   8 52.0   0.4 1.2   0.0 E | 89 5.1   2.3 0.00 0.02 67.0   0.5 52.6   6.6
Last Stop 5/5/26 2315 54.8   2.1 86   9 50.7   0.7 1.7   1.3 ESE | 104 4.2   2.6 0.00 0.02 65.5   1.8 52.0   8.8
Green Valley Vineyard 5/5/26 2315 54.0   2.0 87   7 50.1   0.2 0.2   0.1 N | 352 1.8   0.2 0.00 0.03 65.6   0.8 51.0   6.7
Park Royal 5/5/26 2315 54.8   2.1 89   9 51.6   0.5 - - - 0.00 0.06 65.8   0.3 51.8   6.1
Merino 5/5/26 2315 54.6   1.6 94   5 52.8   0.3 1.8   0.5 SE | 130 3.6   0.7 0.00 0.06 65.9   0.8 52.1   7.1
Green Valley (Sanchietti) 5/5/26 2315 55.1   1.6 - - - - - - - 68.4   0.0 52.4   9.2
Keefer Ranch (Green Valley) 5/5/26 2315 54.3   1.4 89   6 51.1   0.5 - - - 0.00 0.03 66.0   0.3 52.2   8.5
Graton-West (Dutton Ranch) 5/5/26 2315 54.5   1.6 100   0 54.5   1.6 1.9   1.2 S | 179 3.6   1.8 0.00 0.04 67.9   0.5 52.2   7.9
Graton-South (Mill Station Rd) 5/5/26 2315 53.9   1.4 91   5 51.4   0.0 0.7   0.7 SW | 232 3.9   3.9 0.00 0.04 64.9   1.1 51.7   9.2
Occidental (Horseshoe Bend) 5/5/26 2315 51.1   0.5 96   1 49.9   0.2 - - - 0.00 0.04 63.8   0.5 50.2   3.8
Sexton Valley (Jacqueline's Blk) 5/5/26 2315 54.4   1.6 92   4 52.1   0.3 1.1   0.5 W | 270 3.5   1.0 0.00 0.04 66.1   2.5 52.2   8.4
Sebastopol Hills (Burnside Rd) 5/5/26 2315 52.4   1.0 98   1 51.8   0.7 4.8   3.6 SSW | 212 8.1   3.8 0.00 0.17 63.5   2.4 51.0   3.2
Pleasant Hill 5/5/26 2315 53.1   1.4 90   5 50.4   0.1 3.3   1.6 SW | 233 6.4   2.3 0.00 0.06 65.7   1.6 51.0   6.3
Seaview/Fort Ross (Hirsch) 5/5/26 2315 50.4   3.3 91   6 47.8   1.7 1.0   1.7 SSW | 202 2.1   2.8 0.00 0.00 55.3   2.4 46.6   0.4
Max     56.4 100 55.0 4.8 - 8.1 0.00 0.17 69.8 53.2
Avg     54.6 87 48.2 2.1 - 4.6 0.00 - - -
Min     50.4 0 -64.9 0.0 - 0.0 0.00 0.00 55.3 46.6